createdAt,value
2023-03-15T00:01:18.660Z,2.40
2023-03-15T00:03:46.472Z,2.30
2023-03-15T00:06:15.022Z,2.30
2023-03-15T00:08:42.492Z,2.20
2023-03-15T00:11:09.346Z,2.20
2023-03-15T00:13:36.792Z,2.10
2023-03-15T00:16:04.254Z,2.00
2023-03-15T00:18:32.226Z,1.90
2023-03-15T00:20:59.663Z,1.80
2023-03-15T00:23:26.608Z,1.70
2023-03-15T00:25:54.602Z,1.60
2023-03-15T00:28:22.002Z,1.60
2023-03-15T00:30:49.681Z,1.60
2023-03-15T00:33:18.441Z,1.60
2023-03-15T00:35:45.777Z,1.60
2023-03-15T00:38:13.927Z,1.60
2023-03-15T00:40:41.425Z,1.60
2023-03-15T00:43:08.461Z,1.60
2023-03-15T00:45:35.530Z,1.60
2023-03-15T00:48:02.409Z,1.60
2023-03-15T00:50:29.542Z,1.60
2023-03-15T00:52:57.172Z,1.60
2023-03-15T00:55:24.145Z,1.80
2023-03-15T00:57:51.085Z,1.80
2023-03-15T01:00:25.159Z,1.80
2023-03-15T01:02:53.418Z,1.90
2023-03-15T01:05:21.241Z,1.90
2023-03-15T01:07:50.162Z,2.00
2023-03-15T01:10:17.590Z,2.00
2023-03-15T01:12:47.838Z,2.00
2023-03-15T01:15:18.348Z,2.00
2023-03-15T01:17:45.237Z,2.00
2023-03-15T01:20:14.454Z,1.90
2023-03-15T01:22:41.606Z,1.90
2023-03-15T01:25:09.989Z,1.60
2023-03-15T01:27:37.250Z,1.40
2023-03-15T01:30:05.143Z,1.30
2023-03-15T01:32:32.396Z,1.20
2023-03-15T01:34:59.343Z,1.10
2023-03-15T01:37:26.663Z,1.10
2023-03-15T01:39:53.875Z,1.10
2023-03-15T01:42:21.744Z,1.10
2023-03-15T01:45:02.577Z,1.10
2023-03-15T01:47:29.438Z,1.00
2023-03-15T01:50:05.929Z,1.00
2023-03-15T01:52:37.257Z,1.00
2023-03-15T01:55:11.451Z,1.00
2023-03-15T01:57:56.086Z,0.90
2023-03-15T02:00:23.915Z,0.90
2023-03-15T02:02:52.886Z,0.90
2023-03-15T02:05:26.094Z,0.90
2023-03-15T02:07:54.865Z,0.90
2023-03-15T02:10:34.134Z,0.90
2023-03-15T02:13:02.886Z,0.90
2023-03-15T02:15:30.385Z,0.80
2023-03-15T02:17:58.040Z,0.80
2023-03-15T02:20:33.116Z,0.80
2023-03-15T02:23:06.899Z,0.70
2023-03-15T02:25:57.969Z,0.80
2023-03-15T02:28:26.444Z,0.80
2023-03-15T02:30:53.331Z,0.80
2023-03-15T02:33:31.017Z,0.80
2023-03-15T02:36:32.089Z,0.80
2023-03-15T02:38:59.689Z,0.80
2023-03-15T02:41:39.411Z,0.80
2023-03-15T02:44:14.825Z,0.80
2023-03-15T02:46:43.933Z,0.80
2023-03-15T02:49:13.457Z,0.80
2023-03-15T02:51:40.396Z,0.80
2023-03-15T02:54:08.115Z,0.80
2023-03-15T02:56:35.168Z,0.80
2023-03-15T02:59:02.158Z,0.80
2023-03-15T03:01:29.079Z,0.90
2023-03-15T03:03:56.042Z,0.80
2023-03-15T03:06:23.052Z,0.80
2023-03-15T03:08:49.999Z,0.80
2023-03-15T03:11:17.010Z,0.80
2023-03-15T03:13:44.179Z,0.80
2023-03-15T03:16:11.183Z,0.80
2023-03-15T03:18:38.445Z,0.80
2023-03-15T03:21:07.415Z,0.80
2023-03-15T03:23:36.165Z,0.80
2023-03-15T03:26:04.614Z,0.80
2023-03-15T03:28:33.356Z,0.80
2023-03-15T03:31:00.788Z,0.80
2023-03-15T03:33:27.792Z,0.80
2023-03-15T03:36:00.601Z,0.90
2023-03-15T03:38:27.498Z,0.90
2023-03-15T03:40:54.329Z,0.90
2023-03-15T03:43:21.263Z,0.90
2023-03-15T03:45:48.160Z,0.90
2023-03-15T03:48:16.014Z,0.90
2023-03-15T03:50:43.396Z,1.00
2023-03-15T03:53:10.257Z,1.00
2023-03-15T03:55:38.450Z,1.00
2023-03-15T03:58:05.331Z,1.00
2023-03-15T04:00:32.306Z,0.90
2023-03-15T04:02:59.192Z,0.90
2023-03-15T04:05:26.116Z,0.80
2023-03-15T04:07:52.993Z,0.70
2023-03-15T04:10:26.813Z,0.70
2023-03-15T04:13:00.508Z,0.70
2023-03-15T04:15:27.833Z,0.60
2023-03-15T04:17:57.581Z,0.60
2023-03-15T04:20:28.229Z,0.60
2023-03-15T04:22:55.095Z,0.60
2023-03-15T04:25:26.931Z,0.50
2023-03-15T04:28:02.978Z,0.50
2023-03-15T04:30:30.849Z,0.60
2023-03-15T04:33:03.533Z,0.60
2023-03-15T04:35:33.113Z,0.60
2023-03-15T04:38:00.637Z,0.60
2023-03-15T04:40:28.466Z,0.50
2023-03-15T04:42:55.595Z,0.50
2023-03-15T04:45:24.024Z,0.40
2023-03-15T04:47:52.293Z,0.40
2023-03-15T04:50:20.631Z,0.30
2023-03-15T04:52:48.008Z,0.30
2023-03-15T04:55:15.336Z,0.40
2023-03-15T04:57:42.225Z,0.30
2023-03-15T05:00:12.037Z,0.30
2023-03-15T05:02:41.954Z,0.40
2023-03-15T05:05:10.435Z,0.40
2023-03-15T05:07:37.858Z,0.40
2023-03-15T05:10:06.334Z,0.50
2023-03-15T05:12:34.061Z,0.50
2023-03-15T05:15:01.034Z,0.60
2023-03-15T05:17:28.140Z,0.60
2023-03-15T05:19:55.249Z,0.70
2023-03-15T05:22:25.980Z,0.60
2023-03-15T05:24:56.315Z,0.60
2023-03-15T05:27:23.662Z,0.60
2023-03-15T05:29:51.472Z,0.60
2023-03-15T05:32:18.406Z,0.70
2023-03-15T05:34:45.298Z,0.70
2023-03-15T05:37:12.397Z,0.70
2023-03-15T05:39:39.292Z,0.70
2023-03-15T05:42:06.551Z,0.70
2023-03-15T05:44:33.482Z,0.70
2023-03-15T05:47:00.419Z,0.70
2023-03-15T05:49:27.400Z,0.60
2023-03-15T05:51:54.295Z,0.60
2023-03-15T05:54:21.181Z,0.60
2023-03-15T05:56:48.174Z,0.50
2023-03-15T05:59:15.159Z,0.50
2023-03-15T06:01:42.063Z,0.40
2023-03-15T06:04:09.028Z,0.40
2023-03-15T06:06:36.083Z,0.40
2023-03-15T06:09:03.082Z,0.40
2023-03-15T06:11:29.975Z,0.40
2023-03-15T06:13:56.883Z,0.30
2023-03-15T06:16:23.824Z,0.40
2023-03-15T06:18:51.066Z,0.30
2023-03-15T06:21:18.099Z,0.30
2023-03-15T06:23:45.195Z,0.30
2023-03-15T06:26:15.383Z,0.30
2023-03-15T06:28:42.262Z,0.30
2023-03-15T06:31:10.873Z,0.40
2023-03-15T06:33:38.321Z,0.40
2023-03-15T06:36:06.692Z,0.40
2023-03-15T06:38:34.054Z,0.40
2023-03-15T06:41:01.354Z,0.40
2023-03-15T06:43:28.616Z,0.40
2023-03-15T06:45:56.945Z,0.40
2023-03-15T06:48:23.907Z,0.40
2023-03-15T06:50:50.896Z,0.40
2023-03-15T06:53:18.037Z,0.50
2023-03-15T06:55:45.684Z,0.50
2023-03-15T06:58:14.142Z,0.50
2023-03-15T07:00:42.653Z,0.40
2023-03-15T07:03:09.571Z,0.40
2023-03-15T07:05:37.356Z,0.40
2023-03-15T07:08:05.215Z,0.40
2023-03-15T07:10:32.265Z,0.40
2023-03-15T07:12:59.445Z,0.30
2023-03-15T07:15:26.384Z,0.40
2023-03-15T07:17:53.242Z,0.40
2023-03-15T07:20:20.770Z,0.30
2023-03-15T07:22:48.384Z,0.40
2023-03-15T07:25:24.255Z,0.40
2023-03-15T07:27:52.102Z,0.40
2023-03-15T07:30:20.433Z,0.50
2023-03-15T07:32:48.449Z,0.60
2023-03-15T07:35:18.225Z,0.60
2023-03-15T07:37:45.406Z,0.60
2023-03-15T07:40:13.003Z,0.70
2023-03-15T07:42:40.798Z,0.70
2023-03-15T07:45:09.030Z,0.70
2023-03-15T07:47:36.333Z,0.80
2023-03-15T07:50:05.200Z,0.90
2023-03-15T07:52:32.323Z,0.90
2023-03-15T07:54:59.263Z,1.00
2023-03-15T07:57:28.726Z,1.00
2023-03-15T07:59:56.219Z,1.00
2023-03-15T08:02:23.314Z,1.00
2023-03-15T08:04:51.451Z,1.10
2023-03-15T08:07:18.448Z,1.10
2023-03-15T08:09:45.929Z,1.20
2023-03-15T08:12:12.854Z,1.20
2023-03-15T08:14:39.766Z,1.30
2023-03-15T08:17:06.738Z,1.30
2023-03-15T08:19:33.594Z,1.40
2023-03-15T08:22:00.526Z,1.40
2023-03-15T08:24:27.602Z,1.50
2023-03-15T08:26:54.530Z,1.60
2023-03-15T08:29:21.662Z,1.70
2023-03-15T08:31:51.014Z,1.80
2023-03-15T08:34:17.941Z,1.90
2023-03-15T08:36:47.600Z,1.90
2023-03-15T08:39:15.126Z,2.00
2023-03-15T08:41:43.569Z,2.10
2023-03-15T08:44:10.735Z,2.20
2023-03-15T08:46:37.694Z,2.20
2023-03-15T08:49:04.678Z,2.40
2023-03-15T08:51:31.906Z,2.40
2023-03-15T08:53:58.841Z,2.50
2023-03-15T08:56:25.892Z,2.70
2023-03-15T08:58:52.748Z,2.80
2023-03-15T09:01:19.682Z,2.90
2023-03-15T09:03:46.582Z,3.10
2023-03-15T09:06:13.655Z,3.20
2023-03-15T09:08:41.989Z,3.30
2023-03-15T09:11:08.939Z,3.40
2023-03-15T09:13:35.952Z,3.50
2023-03-15T09:16:03.552Z,3.60
2023-03-15T09:18:31.278Z,3.70
2023-03-15T09:20:58.186Z,3.80
2023-03-15T09:23:25.198Z,3.90
2023-03-15T09:25:52.146Z,3.90
2023-03-15T09:28:19.107Z,4.00
2023-03-15T09:30:46.148Z,4.10
2023-03-15T09:33:14.848Z,4.20
2023-03-15T09:35:42.238Z,4.20
2023-03-15T09:38:09.606Z,4.40
2023-03-15T09:40:47.504Z,4.30
2023-03-15T09:43:45.193Z,4.30
2023-03-15T09:46:26.054Z,4.30
2023-03-15T09:49:03.066Z,4.30
2023-03-15T09:51:58.901Z,4.40
2023-03-15T09:54:40.136Z,4.40
2023-03-15T09:57:15.886Z,4.40
2023-03-15T09:59:47.228Z,4.50
2023-03-15T10:02:19.114Z,4.50
2023-03-15T10:04:47.438Z,4.60
2023-03-15T10:07:16.612Z,4.60
2023-03-15T10:09:43.791Z,4.80
2023-03-15T10:12:15.619Z,4.80
2023-03-15T10:15:06.852Z,4.90
2023-03-15T10:17:39.577Z,5.00
2023-03-15T10:20:29.333Z,5.00
2023-03-15T10:23:05.509Z,5.10
2023-03-15T10:25:34.253Z,5.20
2023-03-15T10:28:23.521Z,5.20
2023-03-15T10:30:51.943Z,5.30
2023-03-15T10:33:21.912Z,5.40
2023-03-15T10:35:51.026Z,5.50
2023-03-15T10:38:21.009Z,5.70
2023-03-15T10:40:50.658Z,5.80
2023-03-15T10:43:23.219Z,5.90
2023-03-15T10:46:03.271Z,6.10
2023-03-15T10:48:35.449Z,6.30
2023-03-15T10:51:25.125Z,6.40
2023-03-15T10:54:19.304Z,6.40
2023-03-15T10:57:00.718Z,6.70
2023-03-15T10:59:32.528Z,6.70
2023-03-15T11:02:23.957Z,6.80
2023-03-15T11:05:18.357Z,7.40
2023-03-15T11:08:00.226Z,7.80
2023-03-15T11:10:33.317Z,7.80
2023-03-15T11:13:23.467Z,8.10
2023-03-15T11:16:08.424Z,8.40
2023-03-15T11:18:44.291Z,9.00
2023-03-15T11:21:14.870Z,9.70
2023-03-15T11:23:48.984Z,10.20
2023-03-15T11:26:31.600Z,10.20
2023-03-15T11:29:18.467Z,10.20
2023-03-15T11:31:45.571Z,9.70
2023-03-15T11:34:33.409Z,9.40
2023-03-15T11:37:08.848Z,8.90
2023-03-15T11:40:08.907Z,8.70
2023-03-15T11:42:51.006Z,8.70
2023-03-15T11:45:24.779Z,8.20
2023-03-15T11:47:58.767Z,8.10
2023-03-15T11:50:26.003Z,8.20
2023-03-15T11:52:53.861Z,8.10
2023-03-15T11:55:27.869Z,8.30
2023-03-15T11:57:56.823Z,8.30
2023-03-15T12:00:47.078Z,8.20
2023-03-15T12:03:26.300Z,8.40
2023-03-15T12:06:13.285Z,8.60
2023-03-15T12:08:44.613Z,8.80
2023-03-15T12:11:38.006Z,8.60
2023-03-15T12:14:28.926Z,8.80
2023-03-15T12:17:29.593Z,9.30
2023-03-15T12:20:18.232Z,10.10
2023-03-15T12:23:13.212Z,11.20
2023-03-15T12:25:55.302Z,12.30
2023-03-15T12:29:00.732Z,12.50
2023-03-15T12:31:44.149Z,12.10
2023-03-15T12:34:43.710Z,11.50
2023-03-15T12:37:34.658Z,11.90
2023-03-15T12:40:15.149Z,12.10
2023-03-15T12:42:41.999Z,12.00
2023-03-15T12:45:17.951Z,11.70
2023-03-15T12:47:50.912Z,11.50
2023-03-15T12:50:44.030Z,11.40
2023-03-15T12:53:26.177Z,11.20
2023-03-15T12:55:59.575Z,11.10
2023-03-15T12:58:36.735Z,11.00
2023-03-15T13:01:06.062Z,10.80
2023-03-15T13:03:38.207Z,10.10
2023-03-15T13:06:19.321Z,9.90
2023-03-15T13:09:04.915Z,10.00
2023-03-15T13:11:48.221Z,10.00
2023-03-15T13:14:36.598Z,9.90
2023-03-15T13:17:48.614Z,9.90
2023-03-15T13:20:56.001Z,9.70
2023-03-15T13:23:28.976Z,9.70
2023-03-15T13:26:04.961Z,9.30
2023-03-15T13:28:47.743Z,8.90
2023-03-15T13:31:26.486Z,9.00
2023-03-15T13:33:57.628Z,8.90
2023-03-15T13:36:49.186Z,9.00
2023-03-15T13:39:29.544Z,9.30
2023-03-15T13:42:04.613Z,9.60
2023-03-15T13:44:33.109Z,10.30
2023-03-15T13:47:01.037Z,10.50
2023-03-15T13:49:33.131Z,11.20
2023-03-15T13:52:12.120Z,11.10
2023-03-15T13:54:40.282Z,11.50
2023-03-15T13:57:16.479Z,11.70
2023-03-15T13:59:59.586Z,11.70
2023-03-15T14:02:48.253Z,10.60
2023-03-15T14:05:19.941Z,11.30
2023-03-15T14:07:49.682Z,12.10
2023-03-15T14:10:22.950Z,12.60
2023-03-15T14:12:51.361Z,13.00
2023-03-15T14:15:22.939Z,12.80
2023-03-15T14:18:08.157Z,12.40
2023-03-15T14:20:40.885Z,12.10
2023-03-15T14:23:17.438Z,11.10
2023-03-15T14:25:50.637Z,10.60
2023-03-15T14:28:17.607Z,10.20
2023-03-15T14:30:53.179Z,10.10
2023-03-15T14:33:45.253Z,9.90
2023-03-15T14:36:35.478Z,10.10
2023-03-15T14:39:02.412Z,10.10
2023-03-15T14:41:31.474Z,10.50
2023-03-15T14:43:58.484Z,10.20
2023-03-15T14:46:25.382Z,10.60
2023-03-15T14:48:52.839Z,10.60
2023-03-15T14:51:21.785Z,10.60
2023-03-15T14:53:53.271Z,10.50
2023-03-15T14:56:20.482Z,10.40
2023-03-15T14:58:47.556Z,10.00
2023-03-15T15:01:19.754Z,9.90
2023-03-15T15:03:51.441Z,9.60
2023-03-15T15:06:18.424Z,9.00
2023-03-15T15:08:47.347Z,8.70
2023-03-15T15:11:15.396Z,8.30
2023-03-15T15:13:44.729Z,8.30
2023-03-15T15:16:11.628Z,8.60
2023-03-15T15:18:38.767Z,8.80
2023-03-15T15:21:15.077Z,8.80
2023-03-15T15:23:56.776Z,8.80
2023-03-15T15:26:28.800Z,8.50
2023-03-15T15:28:56.607Z,8.10
2023-03-15T15:31:25.970Z,8.00
2023-03-15T15:33:54.756Z,7.70
2023-03-15T15:36:23.921Z,7.80
2023-03-15T15:38:51.228Z,7.80
2023-03-15T15:41:26.818Z,7.90
2023-03-15T15:43:53.974Z,8.00
2023-03-15T15:46:20.950Z,7.80
2023-03-15T15:48:47.953Z,7.60
2023-03-15T15:51:20.281Z,7.60
2023-03-15T15:53:47.785Z,7.40
2023-03-15T15:56:15.149Z,7.20
2023-03-15T15:58:43.358Z,7.00
2023-03-15T16:01:16.035Z,7.20
2023-03-15T16:03:43.198Z,7.00
2023-03-15T16:06:21.408Z,7.00
2023-03-15T16:08:52.843Z,7.00
2023-03-15T16:11:20.797Z,7.10
2023-03-15T16:13:51.802Z,7.10
2023-03-15T16:16:19.054Z,6.90
2023-03-15T16:18:46.473Z,6.70
2023-03-15T16:21:23.499Z,6.70
2023-03-15T16:23:57.871Z,6.60
2023-03-15T16:26:25.117Z,6.60
2023-03-15T16:28:52.073Z,6.60
2023-03-15T16:31:22.212Z,6.70
2023-03-15T16:33:50.159Z,6.60
2023-03-15T16:36:22.172Z,6.70
2023-03-15T16:38:51.925Z,6.80
2023-03-15T16:41:18.962Z,6.80
2023-03-15T16:43:48.997Z,6.70
2023-03-15T16:46:17.346Z,6.70
2023-03-15T16:48:44.838Z,6.60
2023-03-15T16:51:15.554Z,6.50
2023-03-15T16:53:45.280Z,6.50
2023-03-15T16:56:14.585Z,6.50
2023-03-15T16:58:42.712Z,6.50
2023-03-15T17:01:11.377Z,6.50
2023-03-15T17:03:38.689Z,6.40
2023-03-15T17:06:06.644Z,6.40
2023-03-15T17:08:34.897Z,6.30
2023-03-15T17:11:02.010Z,6.30
2023-03-15T17:13:31.898Z,6.30
2023-03-15T17:16:00.140Z,6.30
2023-03-15T17:18:28.587Z,6.30
2023-03-15T17:20:55.633Z,6.30
2023-03-15T17:23:23.686Z,6.40
2023-03-15T17:25:51.326Z,6.30
2023-03-15T17:28:18.275Z,6.30
2023-03-15T17:30:45.788Z,6.30
2023-03-15T17:33:13.024Z,6.30
2023-03-15T17:35:54.092Z,6.30
2023-03-15T17:38:22.375Z,6.20
2023-03-15T17:40:50.083Z,6.20
2023-03-15T17:43:18.200Z,6.10
2023-03-15T17:45:45.972Z,6.10
2023-03-15T17:48:14.008Z,6.00
2023-03-15T17:50:43.741Z,6.00
2023-03-15T17:53:17.620Z,6.00
2023-03-15T17:55:46.326Z,5.90
2023-03-15T17:58:19.534Z,5.80
2023-03-15T18:00:48.538Z,5.80
2023-03-15T18:03:17.115Z,5.80
2023-03-15T18:05:45.235Z,5.70
2023-03-15T18:08:14.165Z,5.60
2023-03-15T18:10:42.575Z,5.60
2023-03-15T18:13:15.254Z,5.50
2023-03-15T18:15:42.393Z,5.50
2023-03-15T18:18:09.770Z,5.50
2023-03-15T18:20:38.113Z,5.50
2023-03-15T18:23:05.550Z,5.40
2023-03-15T18:25:34.836Z,5.40
2023-03-15T18:28:02.690Z,5.50
2023-03-15T18:30:32.419Z,5.50
2023-03-15T18:32:59.949Z,5.40
2023-03-15T18:35:33.772Z,5.30
2023-03-15T18:38:02.358Z,5.40
2023-03-15T18:40:31.362Z,5.50
2023-03-15T18:42:58.851Z,5.50
2023-03-15T18:45:32.040Z,5.50
2023-03-15T18:48:02.287Z,5.40
2023-03-15T18:50:29.513Z,5.40
2023-03-15T18:52:57.182Z,5.40
2023-03-15T18:55:24.386Z,5.40
2023-03-15T18:57:53.962Z,5.40
2023-03-15T19:00:29.627Z,5.40
2023-03-15T19:02:59.555Z,5.40
2023-03-15T19:05:28.957Z,5.40
2023-03-15T19:07:56.313Z,5.40
2023-03-15T19:10:24.580Z,5.30
2023-03-15T19:12:53.183Z,5.30
2023-03-15T19:15:22.316Z,5.40
2023-03-15T19:17:51.590Z,5.40
2023-03-15T19:20:23.230Z,5.50
2023-03-15T19:22:51.762Z,5.40
2023-03-15T19:25:19.136Z,5.40
2023-03-15T19:27:46.324Z,5.40
2023-03-15T19:30:21.063Z,5.40
2023-03-15T19:32:49.806Z,5.40
2023-03-15T19:35:18.945Z,5.30
2023-03-15T19:37:46.656Z,5.30
2023-03-15T19:40:15.748Z,5.30
2023-03-15T19:42:43.843Z,5.30
2023-03-15T19:45:12.132Z,5.30
2023-03-15T19:47:39.433Z,5.40
2023-03-15T19:50:08.851Z,5.30
2023-03-15T19:52:38.940Z,5.30
2023-03-15T19:55:09.859Z,5.30
2023-03-15T19:57:40.216Z,5.40
2023-03-15T20:00:12.955Z,5.30
2023-03-15T20:02:42.561Z,5.30
2023-03-15T20:05:15.781Z,5.40
2023-03-15T20:07:44.779Z,5.40
2023-03-15T20:10:14.791Z,5.40
2023-03-15T20:12:59.389Z,5.30
2023-03-15T20:15:38.804Z,5.30
2023-03-15T20:18:08.988Z,5.30
2023-03-15T20:20:37.358Z,5.30
2023-03-15T20:23:05.521Z,5.30
2023-03-15T20:25:33.552Z,5.30
2023-03-15T20:28:01.175Z,5.20
2023-03-15T20:30:29.275Z,5.10
2023-03-15T20:32:57.661Z,5.00
2023-03-15T20:35:24.967Z,4.70
2023-03-15T20:37:54.434Z,4.70
2023-03-15T20:40:23.396Z,4.60
2023-03-15T20:42:51.308Z,4.60
2023-03-15T20:45:19.942Z,4.60
2023-03-15T20:47:48.454Z,4.50
2023-03-15T20:50:16.136Z,4.50
2023-03-15T20:52:44.683Z,4.60
2023-03-15T20:55:14.234Z,4.60
2023-03-15T20:57:42.791Z,4.50
2023-03-15T21:00:18.163Z,4.50
2023-03-15T21:02:46.370Z,4.50
2023-03-15T21:05:13.566Z,4.40
2023-03-15T21:07:41.600Z,4.40
2023-03-15T21:10:10.744Z,4.30
2023-03-15T21:12:37.796Z,4.20
2023-03-15T21:15:06.418Z,4.20
2023-03-15T21:17:33.376Z,4.20
2023-03-15T21:20:00.840Z,4.20
2023-03-15T21:22:27.922Z,4.20
2023-03-15T21:24:56.296Z,4.10
2023-03-15T21:27:26.244Z,4.00
2023-03-15T21:29:53.877Z,4.10
2023-03-15T21:32:21.208Z,4.00
2023-03-15T21:34:48.153Z,3.90
2023-03-15T21:37:15.065Z,4.10
2023-03-15T21:39:41.962Z,4.10
2023-03-15T21:42:08.882Z,4.10
2023-03-15T21:44:36.406Z,4.20
2023-03-15T21:47:04.734Z,4.10
2023-03-15T21:49:34.914Z,4.10
2023-03-15T21:52:02.515Z,4.10
2023-03-15T21:54:29.582Z,4.10
2023-03-15T21:56:56.616Z,4.10
2023-03-15T21:59:28.072Z,4.20
2023-03-15T22:01:55.903Z,4.10
2023-03-15T22:04:25.299Z,4.10
2023-03-15T22:06:55.470Z,4.10
2023-03-15T22:09:23.436Z,4.10
2023-03-15T22:11:50.603Z,4.10
2023-03-15T22:14:17.489Z,4.10
2023-03-15T22:16:44.581Z,4.10
2023-03-15T22:19:11.743Z,4.10
2023-03-15T22:21:38.726Z,4.10
2023-03-15T22:24:05.944Z,4.10
2023-03-15T22:26:32.872Z,4.10
2023-03-15T22:28:59.782Z,4.10
2023-03-15T22:31:26.654Z,4.20
2023-03-15T22:33:53.555Z,4.10
2023-03-15T22:36:20.773Z,4.10
2023-03-15T22:38:50.066Z,4.10
2023-03-15T22:41:19.454Z,4.20
2023-03-15T22:43:46.377Z,4.10
2023-03-15T22:46:13.605Z,4.20
2023-03-15T22:48:40.636Z,4.20
2023-03-15T22:51:09.723Z,4.10
2023-03-15T22:53:36.864Z,4.10
2023-03-15T22:56:05.011Z,4.10
2023-03-15T22:58:32.224Z,4.10
2023-03-15T23:00:59.620Z,4.10
2023-03-15T23:03:27.060Z,4.10
2023-03-15T23:05:55.149Z,4.10
2023-03-15T23:08:23.014Z,4.20
2023-03-15T23:10:50.682Z,4.20
2023-03-15T23:13:17.922Z,4.10
2023-03-15T23:15:44.880Z,4.20
2023-03-15T23:18:13.893Z,4.10
2023-03-15T23:20:42.229Z,4.20
2023-03-15T23:23:09.316Z,4.20
2023-03-15T23:25:40.170Z,4.10
2023-03-15T23:28:07.762Z,4.10
2023-03-15T23:30:36.073Z,4.20
2023-03-15T23:33:03.980Z,4.20
2023-03-15T23:35:31.975Z,4.10
2023-03-15T23:37:59.015Z,4.20
2023-03-15T23:40:26.984Z,4.30
2023-03-15T23:42:59.290Z,4.30
2023-03-15T23:45:29.552Z,4.30
2023-03-15T23:47:56.814Z,4.30
2023-03-15T23:50:26.343Z,4.30
2023-03-15T23:52:55.197Z,4.30
2023-03-15T23:55:23.630Z,4.30
2023-03-15T23:57:50.936Z,4.40
